Zefira — 9HA2459 — position and weather

sailwx.info

Track history (hours):
 
Tides and Currents Weather Stations Pressure Air Temp Water Temp Dewpoint Dewpoint Depression Visibility Wind Speed Wind Dir Waves Ship Positions

Zefira

Last reported at 2015-Aug-19 05:22 UTC. Time now 2015-Aug-31 00:38 UTC.
Position N 36°32' E 027°58'.
Warning: this ship's position is 11 days out of date.

Length 50 m; draft 4.9 m.

Type: Pleasure craft. MMSI: 248663000.

Date/timePositionNaut miles runAvg speedWind from/ knotsBaromVisibWave heightAir tempDewpointWater temp
2015-Aug-19 05:22N 36°32' E 027°58'911.4
2015-Aug-19 04:33N 36°29' E 028°09'16 0.8
2015-Aug-18 07:32N 36°32' E 027°49'1010.5
2015-Aug-18 06:33N 36°34' E 027°36'2310.5
2015-Aug-18 04:21N 36°37' E 027°07'17 9.4
2015-Aug-18 02:33N 36°47' E 026°50'1010.2
2015-Aug-18 01:34N 36°56' E 026°45'1110.6
2015-Aug-18 00:33N 37°06' E 026°41'1110.5
2015-Aug-17 23:33N 37°16' E 026°36'5 3.8
2015-Aug-17 22:22N 37°20' E 026°34'0 0.0
2015-Aug-17 04:13N 37°20' E 026°34'2 0.1
2015-Aug-16 04:12N 37°18' E 026°34'0 0.0
2015-Aug-16 02:19N 37°18' E 026°34'5 0.3
2015-Aug-15 04:33N 37°16' E 026°27'9 9.0
2015-Aug-15 03:33N 37°18' E 026°16'9 9.2
2015-Aug-15 02:33N 37°18' E 026°05'9 9.1
2015-Aug-15 01:33N 37°19' E 025°53'9 9.1
2015-Aug-15 00:33N 37°20' E 025°42'10 9.5
2015-Aug-14 23:33N 37°22' E 025°30'9 8.9
2015-Aug-14 22:33N 37°24' E 025°19'0 0.4
2015-Aug-14 21:32N 37°25' E 025°19'0 0.0
2015-Aug-14 20:32N 37°25' E 025°19'0 0.0
2015-Aug-14 19:32N 37°25' E 025°19'0 0.0
2015-Aug-14 18:32N 37°25' E 025°19'0 0.0
2015-Aug-14 17:32N 37°25' E 025°19'0 0.0
2015-Aug-14 16:32N 37°25' E 025°19'0 0.0
2015-Aug-14 15:32N 37°25' E 025°19'0 0.0
2015-Aug-14 14:32N 37°25' E 025°19'0 0.0
2015-Aug-14 13:32N 37°25' E 025°19'0 0.0
2015-Aug-14 12:32N 37°25' E 025°19'0 0.0
2015-Aug-14 11:32N 37°25' E 025°19'0 0.0
2015-Aug-14 10:32N 37°25' E 025°19'0 0.0
2015-Aug-14 09:32N 37°25' E 025°19'0 0.0
2015-Aug-14 08:32N 37°25' E 025°19'0 0.0
2015-Aug-14 07:32N 37°25' E 025°19'0 0.0
2015-Aug-14 06:32N 37°25' E 025°19'0 0.0
2015-Aug-14 05:32N 37°25' E 025°19'0 0.0
2015-Aug-14 04:32N 37°25' E 025°19'0 0.0
2015-Aug-14 03:32N 37°25' E 025°19'0 0.0
2015-Aug-14 02:32N 37°25' E 025°19'0 0.0
2015-Aug-14 01:32N 37°25' E 025°19'0 0.0
2015-Aug-14 00:32N 37°25' E 025°19'0 0.0
2015-Aug-13 23:32N 37°25' E 025°19'0 0.0
2015-Aug-13 22:32N 37°25' E 025°19'0 0.0
2015-Aug-13 21:32N 37°25' E 025°19'0 0.0
2015-Aug-13 20:32N 37°25' E 025°19'0 0.0
2015-Aug-13 19:32N 37°25' E 025°19'0 0.0
2015-Aug-13 18:32N 37°25' E 025°19'1 0.7
2015-Aug-13 17:33N 37°24' E 025°19'3 3.5
2015-Aug-13 16:33N 37°24' E 025°15'1 0.6
2015-Aug-13 15:31N 37°24' E 025°14'0 0.0
2015-Aug-13 14:31N 37°24' E 025°14'0 0.0
2015-Aug-13 13:31N 37°24' E 025°14'0 0.0
2015-Aug-13 12:31N 37°24' E 025°14'0 0.0
2015-Aug-13 11:34N 37°24' E 025°14'0 0.0
2015-Aug-13 10:31N 37°24' E 025°14'0 0.0
2015-Aug-13 09:31N 37°24' E 025°14'3 3.0
2015-Aug-13 08:33N 37°24' E 025°18'1 1.3
2015-Aug-13 07:33N 37°25' E 025°19'0 0.0
2015-Aug-13 06:33N 37°25' E 025°19'0 0.0
2015-Aug-13 05:33N 37°25' E 025°19'0 0.0
2015-Aug-13 04:33N 37°25' E 025°19'0 0.0
2015-Aug-13 03:33N 37°25' E 025°19'0 0.0
2015-Aug-13 02:33N 37°25' E 025°19'0 0.0
2015-Aug-13 01:33N 37°25' E 025°19'0 0.0
2015-Aug-13 00:33N 37°25' E 025°19'0 0.0
2015-Aug-12 23:33N 37°25' E 025°19'0 0.0
2015-Aug-12 22:33N 37°25' E 025°19'0 0.0
2015-Aug-12 21:33N 37°25' E 025°19'0 0.0
2015-Aug-12 20:33N 37°25' E 025°19'0 0.0
2015-Aug-12 19:33N 37°25' E 025°19'0 0.0
2015-Aug-12 18:33N 37°25' E 025°19'0 0.0
2015-Aug-12 17:33N 37°25' E 025°19'0 0.0
2015-Aug-12 16:33N 37°25' E 025°19'0 0.0
2015-Aug-12 15:33N 37°25' E 025°19'0 0.0
2015-Aug-12 14:33N 37°25' E 025°19'0 0.0
2015-Aug-12 13:33N 37°25' E 025°19'0 0.0
2015-Aug-12 12:33N 37°25' E 025°19'0 0.0
2015-Aug-12 11:33N 37°25' E 025°19'0 0.0
2015-Aug-12 10:33N 37°25' E 025°19'0 0.0
2015-Aug-12 09:33N 37°25' E 025°19'3 2.6
2015-Aug-12 08:33N 37°27' E 025°18'2 1.7
2015-Aug-12 07:33N 37°28' E 025°20'0 0.0
2015-Aug-12 06:33N 37°28' E 025°20'0 0.0
2015-Aug-12 05:33N 37°28' E 025°20'1 0.5
2015-Aug-12 04:33N 37°28' E 025°19'3 2.7
2015-Aug-12 03:33N 37°26' E 025°17'8 8.4
2015-Aug-12 02:33N 37°17' E 025°18'9 8.6
2015-Aug-12 01:33N 37°09' E 025°19'8 7.8
2015-Aug-12 00:33N 37°01' E 025°18'8 8.4
2015-Aug-11 23:33N 36°53' E 025°21'7 6.9
2015-Aug-11 22:33N 36°48' E 025°28'4 4.1
2015-Aug-11 21:30N 36°51' E 025°32'0 0.0
2015-Aug-11 20:29N 36°51' E 025°32'0 0.0
2015-Aug-11 16:29N 36°51' E 025°32'0 0.0
2015-Aug-11 15:14N 36°51' E 025°32'0 0.0
2015-Aug-11 11:20N 36°51' E 025°32'0 0.0
2015-Aug-11 10:29N 36°51' E 025°32'0 0.0
2015-Aug-11 08:11N 36°51' E 025°32'0 0.0
2015-Aug-11 06:14N 36°51' E 025°32'0 0.0
2015-Aug-11 05:23N 36°51' E 025°32'0 0.0
2015-Aug-11 04:26N 36°51' E 025°32'0 0.0
2015-Aug-11 03:29N 36°51' E 025°32'0 0.0
2015-Aug-11 02:17N 36°51' E 025°32'0 0.0
2015-Aug-11 01:29N 36°51' E 025°32'0 0.0
2015-Aug-11 00:20N 36°51' E 025°32'0 0.0
2015-Aug-10 23:29N 36°51' E 025°32'0 0.0
2015-Aug-10 22:32N 36°51' E 025°32'0 0.0
2015-Aug-10 18:29N 36°51' E 025°32'0 0.0
2015-Aug-10 17:24N 36°51' E 025°32'0 0.0
2015-Aug-10 15:29N 36°51' E 025°32'0 0.0
2015-Aug-10 14:26N 36°51' E 025°32'0 0.0
2015-Aug-10 12:24N 36°51' E 025°32'0 0.1
2015-Aug-10 09:20N 36°51' E 025°32'0 0.0
2015-Aug-10 08:29N 36°51' E 025°32'0 0.0
2015-Aug-10 07:30N 36°51' E 025°32'0 0.0
2015-Aug-10 06:26N 36°51' E 025°32'0 0.0
2015-Aug-10 05:32N 36°51' E 025°32'0 0.0
2015-Aug-10 04:32N 36°51' E 025°32'0 0.0
2015-Aug-10 03:32N 36°51' E 025°32'0 0.0
2015-Aug-10 02:32N 36°51' E 025°32'0 0.0
2015-Aug-10 01:29N 36°51' E 025°32'0 0.0
2015-Aug-10 00:32N 36°51' E 025°32'0 0.0
2015-Aug-09 23:29N 36°51' E 025°32'0 0.0
2015-Aug-09 22:30N 36°51' E 025°32'0 0.0
2015-Aug-09 21:32N 36°51' E 025°32'0 0.0
2015-Aug-09 20:32N 36°51' E 025°32'0 0.0
2015-Aug-09 19:32N 36°51' E 025°32'0 0.0
2015-Aug-09 18:32N 36°51' E 025°32'0 0.0
2015-Aug-09 17:32N 36°51' E 025°32'0 0.0
2015-Aug-09 16:29N 36°51' E 025°32'0 0.0
2015-Aug-09 15:26N 36°51' E 025°32'0 0.0
2015-Aug-09 14:29N 36°51' E 025°32'0 0.0
2015-Aug-09 13:32N 36°51' E 025°32'0 0.0
2015-Aug-09 12:29N 36°51' E 025°32'0 0.0
2015-Aug-09 11:32N 36°51' E 025°32'0 0.0
2015-Aug-09 10:32N 36°51' E 025°32'0 0.0
2015-Aug-09 09:33N 36°51' E 025°32'0 0.0
2015-Aug-09 08:29N 36°51' E 025°32'0 0.0
2015-Aug-09 07:32N 36°51' E 025°32'0 0.0
2015-Aug-09 06:33N 36°51' E 025°32'0 0.0
2015-Aug-09 05:29N 36°51' E 025°32'  
Track history (hours):
 
Tides and Currents Weather Stations Pressure Air Temp Water Temp Dewpoint Dewpoint Depression Visibility Wind Speed Wind Dir Waves Ship Positions

Zefira

Last reported at 2015-Aug-19 05:22 UTC. Time now 2015-Aug-31 00:38 UTC.
Position N 36°32' E 027°58'.
Warning: this ship's position is 11 days out of date.

Length 50 m; draft 4.9 m.

Type: Pleasure craft. MMSI: 248663000.

Date/timePositionNaut miles runAvg speedWind from/ knotsBaromVisibWave heightAir tempDewpointWater temp
2015-Aug-19 05:22N 36°32' E 027°58'911.4
2015-Aug-19 04:33N 36°29' E 028°09'16 0.8
2015-Aug-18 07:32N 36°32' E 027°49'1010.5
2015-Aug-18 06:33N 36°34' E 027°36'2310.5
2015-Aug-18 04:21N 36°37' E 027°07'17 9.4
2015-Aug-18 02:33N 36°47' E 026°50'1010.2
2015-Aug-18 01:34N 36°56' E 026°45'1110.6
2015-Aug-18 00:33N 37°06' E 026°41'1110.5
2015-Aug-17 23:33N 37°16' E 026°36'5 3.8
2015-Aug-17 22:22N 37°20' E 026°34'0 0.0
2015-Aug-17 04:13N 37°20' E 026°34'2 0.1
2015-Aug-16 04:12N 37°18' E 026°34'0 0.0
2015-Aug-16 02:19N 37°18' E 026°34'5 0.3
2015-Aug-15 04:33N 37°16' E 026°27'9 9.0
2015-Aug-15 03:33N 37°18' E 026°16'9 9.2
2015-Aug-15 02:33N 37°18' E 026°05'9 9.1
2015-Aug-15 01:33N 37°19' E 025°53'9 9.1
2015-Aug-15 00:33N 37°20' E 025°42'10 9.5
2015-Aug-14 23:33N 37°22' E 025°30'9 8.9
2015-Aug-14 22:33N 37°24' E 025°19'0 0.4
2015-Aug-14 21:32N 37°25' E 025°19'0 0.0
2015-Aug-14 20:32N 37°25' E 025°19'0 0.0
2015-Aug-14 19:32N 37°25' E 025°19'0 0.0
2015-Aug-14 18:32N 37°25' E 025°19'0 0.0
2015-Aug-14 17:32N 37°25' E 025°19'0 0.0
2015-Aug-14 16:32N 37°25' E 025°19'0 0.0
2015-Aug-14 15:32N 37°25' E 025°19'0 0.0
2015-Aug-14 14:32N 37°25' E 025°19'0 0.0
2015-Aug-14 13:32N 37°25' E 025°19'0 0.0
2015-Aug-14 12:32N 37°25' E 025°19'0 0.0
2015-Aug-14 11:32N 37°25' E 025°19'0 0.0
2015-Aug-14 10:32N 37°25' E 025°19'0 0.0
2015-Aug-14 09:32N 37°25' E 025°19'0 0.0
2015-Aug-14 08:32N 37°25' E 025°19'0 0.0
2015-Aug-14 07:32N 37°25' E 025°19'0 0.0
2015-Aug-14 06:32N 37°25' E 025°19'0 0.0
2015-Aug-14 05:32N 37°25' E 025°19'0 0.0
2015-Aug-14 04:32N 37°25' E 025°19'0 0.0
2015-Aug-14 03:32N 37°25' E 025°19'0 0.0
2015-Aug-14 02:32N 37°25' E 025°19'0 0.0
2015-Aug-14 01:32N 37°25' E 025°19'0 0.0
2015-Aug-14 00:32N 37°25' E 025°19'0 0.0
2015-Aug-13 23:32N 37°25' E 025°19'0 0.0
2015-Aug-13 22:32N 37°25' E 025°19'0 0.0
2015-Aug-13 21:32N 37°25' E 025°19'0 0.0
2015-Aug-13 20:32N 37°25' E 025°19'0 0.0
2015-Aug-13 19:32N 37°25' E 025°19'0 0.0
2015-Aug-13 18:32N 37°25' E 025°19'1 0.7
2015-Aug-13 17:33N 37°24' E 025°19'3 3.5
2015-Aug-13 16:33N 37°24' E 025°15'1 0.6
2015-Aug-13 15:31N 37°24' E 025°14'0 0.0
2015-Aug-13 14:31N 37°24' E 025°14'0 0.0
2015-Aug-13 13:31N 37°24' E 025°14'0 0.0
2015-Aug-13 12:31N 37°24' E 025°14'0 0.0
2015-Aug-13 11:34N 37°24' E 025°14'0 0.0
2015-Aug-13 10:31N 37°24' E 025°14'0 0.0
2015-Aug-13 09:31N 37°24' E 025°14'3 3.0
2015-Aug-13 08:33N 37°24' E 025°18'1 1.3
2015-Aug-13 07:33N 37°25' E 025°19'0 0.0
2015-Aug-13 06:33N 37°25' E 025°19'0 0.0
2015-Aug-13 05:33N 37°25' E 025°19'0 0.0
2015-Aug-13 04:33N 37°25' E 025°19'0 0.0
2015-Aug-13 03:33N 37°25' E 025°19'0 0.0
2015-Aug-13 02:33N 37°25' E 025°19'0 0.0
2015-Aug-13 01:33N 37°25' E 025°19'0 0.0
2015-Aug-13 00:33N 37°25' E 025°19'0 0.0
2015-Aug-12 23:33N 37°25' E 025°19'0 0.0
2015-Aug-12 22:33N 37°25' E 025°19'0 0.0
2015-Aug-12 21:33N 37°25' E 025°19'0 0.0
2015-Aug-12 20:33N 37°25' E 025°19'0 0.0
2015-Aug-12 19:33N 37°25' E 025°19'0 0.0
2015-Aug-12 18:33N 37°25' E 025°19'0 0.0
2015-Aug-12 17:33N 37°25' E 025°19'0 0.0
2015-Aug-12 16:33N 37°25' E 025°19'0 0.0
2015-Aug-12 15:33N 37°25' E 025°19'0 0.0
2015-Aug-12 14:33N 37°25' E 025°19'0 0.0
2015-Aug-12 13:33N 37°25' E 025°19'0 0.0
2015-Aug-12 12:33N 37°25' E 025°19'0 0.0
2015-Aug-12 11:33N 37°25' E 025°19'0 0.0
2015-Aug-12 10:33N 37°25' E 025°19'0 0.0
2015-Aug-12 09:33N 37°25' E 025°19'3 2.6
2015-Aug-12 08:33N 37°27' E 025°18'2 1.7
2015-Aug-12 07:33N 37°28' E 025°20'0 0.0
2015-Aug-12 06:33N 37°28' E 025°20'0 0.0
2015-Aug-12 05:33N 37°28' E 025°20'1 0.5
2015-Aug-12 04:33N 37°28' E 025°19'3 2.7
2015-Aug-12 03:33N 37°26' E 025°17'8 8.4
2015-Aug-12 02:33N 37°17' E 025°18'9 8.6
2015-Aug-12 01:33N 37°09' E 025°19'8 7.8
2015-Aug-12 00:33N 37°01' E 025°18'8 8.4
2015-Aug-11 23:33N 36°53' E 025°21'7 6.9
2015-Aug-11 22:33N 36°48' E 025°28'4 4.1
2015-Aug-11 21:30N 36°51' E 025°32'0 0.0
2015-Aug-11 20:29N 36°51' E 025°32'0 0.0
2015-Aug-11 16:29N 36°51' E 025°32'0 0.0
2015-Aug-11 15:14N 36°51' E 025°32'0 0.0
2015-Aug-11 11:20N 36°51' E 025°32'0 0.0
2015-Aug-11 10:29N 36°51' E 025°32'0 0.0
2015-Aug-11 08:11N 36°51' E 025°32'0 0.0
2015-Aug-11 06:14N 36°51' E 025°32'0 0.0
2015-Aug-11 05:23N 36°51' E 025°32'0 0.0
2015-Aug-11 04:26N 36°51' E 025°32'0 0.0
2015-Aug-11 03:29N 36°51' E 025°32'0 0.0
2015-Aug-11 02:17N 36°51' E 025°32'0 0.0
2015-Aug-11 01:29N 36°51' E 025°32'0 0.0
2015-Aug-11 00:20N 36°51' E 025°32'0 0.0
2015-Aug-10 23:29N 36°51' E 025°32'0 0.0
2015-Aug-10 22:32N 36°51' E 025°32'0 0.0
2015-Aug-10 18:29N 36°51' E 025°32'0 0.0
2015-Aug-10 17:24N 36°51' E 025°32'0 0.0
2015-Aug-10 15:29N 36°51' E 025°32'0 0.0
2015-Aug-10 14:26N 36°51' E 025°32'0 0.0
2015-Aug-10 12:24N 36°51' E 025°32'0 0.1
2015-Aug-10 09:20N 36°51' E 025°32'0 0.0
2015-Aug-10 08:29N 36°51' E 025°32'0 0.0
2015-Aug-10 07:30N 36°51' E 025°32'0 0.0
2015-Aug-10 06:26N 36°51' E 025°32'0 0.0
2015-Aug-10 05:32N 36°51' E 025°32'0 0.0
2015-Aug-10 04:32N 36°51' E 025°32'0 0.0
2015-Aug-10 03:32N 36°51' E 025°32'0 0.0
2015-Aug-10 02:32N 36°51' E 025°32'0 0.0
2015-Aug-10 01:29N 36°51' E 025°32'0 0.0
2015-Aug-10 00:32N 36°51' E 025°32'0 0.0
2015-Aug-09 23:29N 36°51' E 025°32'0 0.0
2015-Aug-09 22:30N 36°51' E 025°32'0 0.0
2015-Aug-09 21:32N 36°51' E 025°32'0 0.0
2015-Aug-09 20:32N 36°51' E 025°32'0 0.0
2015-Aug-09 19:32N 36°51' E 025°32'0 0.0
2015-Aug-09 18:32N 36°51' E 025°32'0 0.0
2015-Aug-09 17:32N 36°51' E 025°32'0 0.0
2015-Aug-09 16:29N 36°51' E 025°32'0 0.0
2015-Aug-09 15:26N 36°51' E 025°32'0 0.0
2015-Aug-09 14:29N 36°51' E 025°32'0 0.0
2015-Aug-09 13:32N 36°51' E 025°32'0 0.0
2015-Aug-09 12:29N 36°51' E 025°32'0 0.0
2015-Aug-09 11:32N 36°51' E 025°32'0 0.0
2015-Aug-09 10:32N 36°51' E 025°32'0 0.0
2015-Aug-09 09:33N 36°51' E 025°32'0 0.0
2015-Aug-09 08:29N 36°51' E 025°32'0 0.0
2015-Aug-09 07:32N 36°51' E 025°32'0 0.0
2015-Aug-09 06:33N 36°51' E 025°32'0 0.0
2015-Aug-09 05:29N 36°51' E 025°32'  

Dump ship's entire track history